N440WF KVNY-KVNY

Flight info

Callsign N440WF
Flight time N/A
Altitude
Route
Aircraft C185/L-VGD/C

Departure

Time 2026-05-06 15:12
Airport Van Nuys Airport (KVNY)

Arrival

Time N/A
Airport Van Nuys Airport (KVNY)
Time Latitude Longitude Altitude Speed Heading
2026-05-06 15:11 34.28398 -118.46575 2500 ft 125 kts 353°
2026-05-06 15:12 34.29189 -118.46942 2614 ft 124 kts 328°
2026-05-06 15:12 34.29924 -118.47527 2668 ft 128 kts 326°
2026-05-06 15:12 34.30676 -118.48151 2667 ft 132 kts 328°
2026-05-06 15:12 34.31449 -118.48780 2668 ft 135 kts 325°
2026-05-06 15:13 34.32214 -118.49447 2669 ft 136 kts 321°
2026-05-06 15:13 34.32843 -118.50278 2666 ft 136 kts 306°
2026-05-06 15:13 34.33400 -118.51199 2666 ft 136 kts 306°
2026-05-06 15:13 34.33958 -118.52135 2665 ft 136 kts 306°
2026-05-06 15:14 34.34514 -118.53071 2666 ft 137 kts 306°
2026-05-06 15:14 34.35068 -118.54007 2669 ft 137 kts 306°
2026-05-06 15:14 34.35617 -118.54934 2666 ft 137 kts 306°
2026-05-06 15:14 34.36172 -118.55874 2666 ft 137 kts 306°
2026-05-06 15:15 34.36728 -118.56814 2667 ft 137 kts 306°
2026-05-06 15:15 34.37283 -118.57751 2668 ft 137 kts 306°
2026-05-06 15:15 34.37829 -118.58686 2674 ft 135 kts 306°
2026-05-06 15:15 34.38372 -118.59617 2672 ft 135 kts 306°
2026-05-06 15:16 34.38900 -118.60520 2669 ft 124 kts 306°
2026-05-06 15:16 34.39364 -118.61318 2662 ft 109 kts 306°
2026-05-06 15:16 34.39778 -118.62030 2657 ft 100 kts 306°
2026-05-06 15:16 34.40170 -118.62703 2649 ft 96 kts 306°
2026-05-06 15:17 34.40546 -118.63353 2657 ft 93 kts 306°
2026-05-06 15:17 34.40912 -118.63990 2665 ft 91 kts 306°
2026-05-06 15:17 34.41343 -118.64542 2668 ft 90 kts 323°
2026-05-06 15:17 34.41857 -118.64965 2679 ft 89 kts 327°
2026-05-06 15:18 34.42380 -118.65384 2740 ft 101 kts 326°
2026-05-06 15:18 34.43044 -118.65944 2808 ft 124 kts 324°
2026-05-06 15:18 34.43780 -118.66594 2861 ft 133 kts 323°
2026-05-06 15:18 34.44512 -118.67256 2905 ft 129 kts 323°
2026-05-06 15:19 34.45228 -118.67913 2950 ft 128 kts 323°
2026-05-06 15:19 34.45939 -118.68562 2987 ft 128 kts 323°
2026-05-06 15:19 34.46643 -118.69209 2993 ft 128 kts 323°
2026-05-06 15:19 34.47351 -118.69860 2999 ft 127 kts 323°
2026-05-06 15:20 34.48062 -118.70512 3000 ft 128 kts 323°
2026-05-06 15:20 34.48775 -118.71169 3002 ft 132 kts 323°
2026-05-06 15:20 34.49526 -118.71858 3004 ft 136 kts 323°
2026-05-06 15:20 34.50262 -118.72574 3008 ft 136 kts 318°
2026-05-06 15:21 34.50836 -118.73480 3014 ft 136 kts 302°
2026-05-06 15:21 34.51183 -118.74541 3021 ft 138 kts 288°
2026-05-06 15:21 34.51260 -118.75679 3304 ft 127 kts 266°
2026-05-06 15:21 34.51090 -118.76692 3686 ft 123 kts 252°
2026-05-06 15:22 34.50715 -118.77675 3862 ft 134 kts 238°
2026-05-06 15:22 34.50084 -118.78564 3942 ft 145 kts 224°
2026-05-06 15:22 34.49200 -118.79232 3977 ft 153 kts 205°
2026-05-06 15:22 34.48162 -118.79492 3999 ft 158 kts 180°
2026-05-06 15:23 34.47062 -118.79396 4006 ft 159 kts 175°
2026-05-06 15:23 34.45945 -118.79261 4018 ft 162 kts 175°
2026-05-06 15:23 34.44810 -118.79120 4006 ft 164 kts 173°
2026-05-06 15:23 34.43743 -118.78702 4002 ft 163 kts 152°
2026-05-06 15:24 34.42864 -118.77851 4004 ft 161 kts 132°
2026-05-06 15:24 34.42267 -118.76711 3995 ft 160 kts 113°
2026-05-06 15:24 34.42008 -118.75405 4000 ft 160 kts 94°
2026-05-06 15:24 34.42111 -118.74072 3998 ft 159 kts 75°
2026-05-06 15:25 34.42555 -118.72871 4000 ft 158 kts 56°
2026-05-06 15:25 34.43300 -118.71900 4005 ft 158 kts 37°
2026-05-06 15:25 34.44262 -118.71272 4021 ft 157 kts 18°
2026-05-06 15:25 34.45337 -118.71050 4021 ft 157 kts 360°
2026-05-06 15:26 34.46411 -118.71257 4015 ft 155 kts 341°
2026-05-06 15:26 34.47363 -118.71860 4021 ft 155 kts 323°
2026-05-06 15:26 34.48108 -118.72790 4025 ft 156 kts 305°
2026-05-06 15:26 34.48579 -118.73974 4026 ft 156 kts 287°
2026-05-06 15:27 34.48711 -118.75274 4024 ft 156 kts 268°
2026-05-06 15:27 34.48492 -118.76562 4026 ft 157 kts 250°
2026-05-06 15:27 34.47950 -118.77689 4028 ft 158 kts 231°
2026-05-06 15:27 34.47127 -118.78559 4022 ft 157 kts 212°
2026-05-06 15:28 34.46114 -118.79061 4021 ft 158 kts 194°
2026-05-06 15:28 34.45014 -118.79143 4017 ft 160 kts 175°
2026-05-06 15:28 34.43947 -118.78788 4024 ft 162 kts 155°
2026-05-06 15:28 34.42980 -118.78096 4030 ft 160 kts 154°
2026-05-06 15:29 34.41901 -118.77980 4026 ft 159 kts 199°
2026-05-06 15:29 34.41093 -118.78814 4024 ft 157 kts 242°
2026-05-06 15:29 34.40765 -118.80071 4017 ft 156 kts 259°
2026-05-06 15:29 34.40568 -118.81360 4017 ft 156 kts 260°
2026-05-06 15:30 34.40352 -118.82648 4018 ft 156 kts 258°
2026-05-06 15:30 34.40102 -118.83927 4015 ft 156 kts 257°
2026-05-06 15:30 34.39988 -118.85223 4018 ft 155 kts 277°
2026-05-06 15:30 34.40462 -118.86376 4020 ft 155 kts 310°
2026-05-06 15:31 34.41196 -118.87340 4021 ft 156 kts 313°
2026-05-06 15:31 34.41927 -118.88293 4018 ft 154 kts 312°
2026-05-06 15:31 34.42638 -118.89259 4024 ft 153 kts 311°
2026-05-06 15:32 34.43877 -118.91336 4008 ft 151 kts 293°
2026-05-06 15:32 34.44133 -118.92570 4019 ft 152 kts 275°
2026-05-06 15:32 34.44055 -118.93848 4020 ft 153 kts 257°
2026-05-06 15:32 34.43650 -118.95021 4017 ft 153 kts 239°
2026-05-06 15:33 34.42945 -118.95996 4022 ft 154 kts 220°
2026-05-06 15:33 34.42021 -118.96651 4018 ft 155 kts 202°
2026-05-06 15:33 34.40971 -118.96917 4015 ft 154 kts 184°
2026-05-06 15:33 34.39918 -118.96775 4016 ft 156 kts 165°
2026-05-06 15:34 34.38934 -118.96225 4016 ft 156 kts 146°
2026-05-06 15:34 34.38142 -118.95326 4018 ft 157 kts 128°
2026-05-06 15:34 34.37628 -118.94156 4018 ft 157 kts 108°
2026-05-06 15:34 34.37451 -118.92871 4018 ft 157 kts 90°
2026-05-06 15:35 34.37625 -118.91574 4009 ft 156 kts 71°
2026-05-06 15:35 34.38136 -118.90407 4018 ft 158 kts 52°
2026-05-06 15:35 34.38925 -118.89521 4197 ft 147 kts 33°
2026-05-06 15:35 34.39826 -118.89011 4411 ft 140 kts 16°
2026-05-06 15:36 34.40775 -118.88834 4638 ft 137 kts 360°
2026-05-06 15:36 34.41713 -118.88982 4869 ft 136 kts 344°
2026-05-06 15:36 34.42567 -118.89432 5102 ft 136 kts 328°
2026-05-06 15:36 34.43292 -118.90161 5329 ft 134 kts 313°
2026-05-06 15:37 34.43808 -118.91079 5546 ft 133 kts 297°
2026-05-06 15:37 34.44097 -118.92141 5773 ft 132 kts 282°
2026-05-06 15:37 34.44138 -118.93248 6006 ft 133 kts 266°
2026-05-06 15:37 34.43926 -118.94342 6235 ft 134 kts 251°
2026-05-06 15:38 34.43464 -118.95327 6452 ft 135 kts 235°
2026-05-06 15:38 34.42799 -118.96114 6686 ft 136 kts 219°
2026-05-06 15:38 34.41960 -118.96659 6909 ft 137 kts 202°
2026-05-06 15:38 34.41027 -118.96894 7122 ft 136 kts 185°
2026-05-06 15:39 34.40099 -118.96807 7343 ft 135 kts 168°
2026-05-06 15:39 34.39224 -118.96413 7564 ft 134 kts 151°
2026-05-06 15:39 34.38481 -118.95751 7793 ft 131 kts 135°
2026-05-06 15:39 34.37917 -118.94876 8021 ft 132 kts 118°
2026-05-06 15:40 34.37571 -118.93848 8250 ft 132 kts 102°
2026-05-06 15:40 34.37469 -118.92756 8479 ft 130 kts 86°
2026-05-06 15:40 34.37609 -118.91703 8703 ft 127 kts 70°
2026-05-06 15:40 34.37970 -118.90738 8924 ft 124 kts 56°
2026-05-06 15:41 34.38509 -118.89939 9152 ft 122 kts 41°
2026-05-06 15:41 34.38944 -118.89519 9301 ft 120 kts 32°
2026-05-06 15:41 34.39933 -118.88977 9596 ft 116 kts 14°
2026-05-06 15:41 34.40721 -118.88839 9825 ft 114 kts
2026-05-06 15:42 34.41245 -118.88871 9967 ft 114 kts 354°
2026-05-06 15:42 34.42075 -118.89119 9947 ft 130 kts 341°
2026-05-06 15:42 34.42896 -118.89685 9940 ft 140 kts 325°
2026-05-06 15:42 34.43575 -118.90558 9925 ft 145 kts 308°
2026-05-06 15:43 34.44014 -118.91647 9922 ft 148 kts 291°
2026-05-06 15:43 34.44167 -118.92888 9945 ft 150 kts 273°
2026-05-06 15:43 34.43995 -118.94139 9982 ft 152 kts 255°
2026-05-06 15:43 34.43502 -118.95281 10000 ft 155 kts 236°
2026-05-06 15:44 34.42728 -118.96191 10015 ft 158 kts 216°
2026-05-06 15:44 34.41997 -118.96664 10014 ft 158 kts 203°
2026-05-06 15:44 34.40926 -118.96995 10010 ft 158 kts 192°
2026-05-06 15:44 34.40006 -118.97665 10015 ft 156 kts 236°
2026-05-06 15:45 34.39788 -118.98838 10191 ft 137 kts 287°
2026-05-06 15:45 34.40203 -118.99805 10363 ft 128 kts 311°
2026-05-06 15:45 34.40763 -119.00653 10446 ft 131 kts 314°
2026-05-06 15:45 34.41333 -119.01547 10483 ft 136 kts 311°
2026-05-06 15:46 34.41889 -119.02496 10504 ft 140 kts 309°
2026-05-06 15:46 34.42427 -119.03478 10504 ft 142 kts 308°
2026-05-06 15:46 34.42959 -119.04479 10483 ft 140 kts 307°
2026-05-06 15:46 34.43472 -119.05471 10461 ft 137 kts 307°
2026-05-06 15:47 34.43979 -119.06447 10493 ft 138 kts 307°
2026-05-06 15:47 34.44502 -119.07449 10505 ft 142 kts 308°
2026-05-06 15:47 34.45026 -119.08459 10499 ft 142 kts 307°
2026-05-06 15:47 34.45544 -119.09462 10500 ft 141 kts 307°
2026-05-06 15:48 34.46070 -119.10478 10517 ft 143 kts 307°
2026-05-06 15:48 34.46600 -119.11500 10524 ft 144 kts 307°
2026-05-06 15:48 34.47131 -119.12528 10515 ft 144 kts 307°
2026-05-06 15:48 34.47662 -119.13558 10510 ft 143 kts 307°
2026-05-06 15:49 34.48189 -119.14580 10501 ft 142 kts 307°
2026-05-06 15:49 34.48710 -119.15596 10504 ft 140 kts 307°
2026-05-06 15:49 34.49221 -119.16589 10507 ft 140 kts 307°
2026-05-06 15:49 34.49739 -119.17588 10513 ft 140 kts 307°
2026-05-06 15:50 34.50252 -119.18591 10517 ft 140 kts 307°
2026-05-06 15:50 34.50770 -119.19596 10525 ft 140 kts 307°
2026-05-06 15:50 34.51285 -119.20594 10534 ft 143 kts 307°
2026-05-06 15:50 34.51818 -119.21626 10538 ft 145 kts 307°
2026-05-06 15:51 34.52362 -119.22680 10537 ft 148 kts 307°
2026-05-06 15:51 34.52908 -119.23740 10520 ft 148 kts 307°
2026-05-06 15:51 34.53452 -119.24800 10513 ft 147 kts 307°
2026-05-06 15:51 34.53986 -119.25841 10507 ft 147 kts 307°
2026-05-06 15:52 34.54527 -119.26896 10518 ft 147 kts 307°
2026-05-06 15:52 34.55066 -119.27945 10516 ft 146 kts 307°
2026-05-06 15:52 34.55598 -119.28983 10516 ft 144 kts 307°
2026-05-06 15:52 34.56130 -119.30021 10523 ft 145 kts 307°
2026-05-06 15:53 34.56655 -119.31047 10501 ft 143 kts 307°
2026-05-06 15:53 34.57178 -119.32073 10515 ft 143 kts 307°
2026-05-06 15:53 34.57708 -119.33102 10525 ft 144 kts 307°
2026-05-06 15:53 34.58246 -119.34142 10521 ft 145 kts 307°
2026-05-06 15:54 34.58781 -119.35181 10515 ft 145 kts 307°
2026-05-06 15:54 34.59307 -119.36207 10516 ft 145 kts 307°
2026-05-06 15:54 34.59842 -119.37252 10525 ft 145 kts 307°
2026-05-06 15:54 34.60382 -119.38303 10527 ft 147 kts 307°
2026-05-06 15:55 34.60925 -119.39360 10516 ft 147 kts 307°
2026-05-06 15:55 34.61459 -119.40405 10519 ft 147 kts 306°
2026-05-06 15:55 34.61998 -119.41465 10515 ft 147 kts 306°
2026-05-06 15:55 34.62537 -119.42519 10513 ft 146 kts 306°
2026-05-06 15:56 34.63074 -119.43570 10512 ft 146 kts 306°
2026-05-06 15:56 34.63605 -119.44606 10518 ft 146 kts 307°
2026-05-06 15:56 34.64144 -119.45663 10515 ft 146 kts 306°
2026-05-06 15:56 34.64681 -119.46713 10518 ft 146 kts 307°
2026-05-06 15:57 34.65214 -119.47756 10524 ft 147 kts 307°
2026-05-06 15:57 34.65757 -119.48816 10523 ft 148 kts 307°
2026-05-06 15:57 34.66298 -119.49878 10511 ft 147 kts 307°
2026-05-06 15:57 34.66835 -119.50934 10515 ft 146 kts 306°
2026-05-06 15:58 34.67375 -119.51990 10515 ft 147 kts 306°
2026-05-06 15:58 34.67911 -119.53038 10512 ft 146 kts 306°
2026-05-06 15:58 34.68442 -119.54076 10521 ft 146 kts 306°
2026-05-06 15:58 34.68981 -119.55131 10529 ft 147 kts 307°
2026-05-06 15:59 34.69524 -119.56195 10520 ft 148 kts 307°
2026-05-06 15:59 34.70066 -119.57259 10518 ft 148 kts 307°
2026-05-06 15:59 34.70612 -119.58328 10519 ft 149 kts 307°
2026-05-06 15:59 34.71151 -119.59388 10520 ft 149 kts 306°
2026-05-06 16:00 34.71698 -119.60466 10516 ft 149 kts 306°
2026-05-06 16:00 34.72245 -119.61543 10522 ft 149 kts 307°
2026-05-06 16:00 34.72786 -119.62608 10510 ft 149 kts 306°
2026-05-06 16:00 34.73329 -119.63675 10510 ft 148 kts 306°
2026-05-06 16:01 34.73873 -119.64746 10523 ft 149 kts 306°
2026-05-06 16:01 34.74419 -119.65820 10522 ft 149 kts 306°
2026-05-06 16:01 34.74967 -119.66895 10506 ft 148 kts 306°
2026-05-06 16:01 34.75509 -119.67959 10508 ft 147 kts 306°
2026-05-06 16:02 34.76042 -119.69006 10513 ft 147 kts 306°
2026-05-06 16:02 34.76581 -119.70069 10522 ft 148 kts 306°
2026-05-06 16:02 34.77122 -119.71144 10519 ft 148 kts 306°
2026-05-06 16:02 34.77646 -119.72205 10518 ft 148 kts 306°
2026-05-06 16:03 34.78195 -119.73275 10521 ft 149 kts 307°
2026-05-06 16:03 34.78745 -119.74347 10521 ft 149 kts 306°
2026-05-06 16:03 34.79293 -119.75423 10514 ft 149 kts 306°
2026-05-06 16:03 34.79828 -119.76481 10519 ft 148 kts 306°
2026-05-06 16:04 34.80369 -119.77552 10515 ft 148 kts 306°
2026-05-06 16:04 34.80908 -119.78613 10518 ft 147 kts 306°
2026-05-06 16:04 34.81444 -119.79667 10522 ft 146 kts 306°
2026-05-06 16:04 34.81981 -119.80725 10522 ft 146 kts 306°
2026-05-06 16:05 34.82507 -119.81766 10520 ft 146 kts 306°
2026-05-06 16:05 34.83042 -119.82825 10529 ft 147 kts 306°
2026-05-06 16:05 34.83577 -119.83886 10531 ft 147 kts 306°
2026-05-06 16:05 34.84114 -119.84948 10528 ft 147 kts 306°
2026-05-06 16:06 34.84653 -119.86015 10523 ft 148 kts 306°
2026-05-06 16:06 34.85182 -119.87062 10511 ft 147 kts 306°
2026-05-06 16:06 34.85716 -119.88120 10511 ft 146 kts 306°
2026-05-06 16:06 34.86248 -119.89171 10515 ft 145 kts 306°
2026-05-06 16:07 34.86780 -119.90224 10515 ft 146 kts 306°
2026-05-06 16:07 34.87311 -119.91276 10517 ft 145 kts 307°
2026-05-06 16:07 34.87836 -119.92317 10528 ft 146 kts 306°
2026-05-06 16:07 34.88367 -119.93373 10527 ft 146 kts 306°
2026-05-06 16:08 34.88900 -119.94430 10533 ft 147 kts 306°
2026-05-06 16:08 34.89436 -119.95495 10524 ft 146 kts 306°
2026-05-06 16:08 34.89964 -119.96541 10527 ft 147 kts 306°
2026-05-06 16:08 34.90499 -119.97601 10529 ft 147 kts 306°
2026-05-06 16:09 34.91032 -119.98660 10520 ft 146 kts 306°
2026-05-06 16:09 34.91558 -119.99706 10526 ft 147 kts 306°
2026-05-06 16:09 34.92096 -120.00772 10525 ft 148 kts 306°
2026-05-06 16:09 34.92636 -120.01847 10520 ft 149 kts 306°
2026-05-06 16:10 34.93176 -120.02922 10520 ft 149 kts 306°
2026-05-06 16:10 34.93713 -120.03990 10514 ft 149 kts 306°
2026-05-06 16:10 34.94257 -120.05072 10516 ft 149 kts 306°
2026-05-06 16:10 34.94798 -120.06152 10517 ft 149 kts 306°
2026-05-06 16:11 34.95341 -120.07232 10517 ft 149 kts 306°
2026-05-06 16:11 34.95884 -120.08312 10516 ft 148 kts 306°
2026-05-06 16:11 34.96420 -120.09383 10519 ft 148 kts 306°
2026-05-06 16:11 34.96950 -120.10440 10522 ft 147 kts 306°
2026-05-06 16:12 34.97485 -120.11509 10528 ft 148 kts 306°
2026-05-06 16:12 34.98022 -120.12584 10526 ft 147 kts 306°
2026-05-06 16:12 34.98549 -120.13640 10525 ft 147 kts 306°
2026-05-06 16:12 34.99084 -120.14708 10522 ft 147 kts 306°
2026-05-06 16:13 34.99617 -120.15774 10517 ft 147 kts 306°
2026-05-06 16:13 35.00145 -120.16830 10522 ft 145 kts 306°
2026-05-06 16:13 35.00667 -120.17875 10538 ft 146 kts 306°
2026-05-06 16:13 35.01199 -120.18934 10541 ft 147 kts 306°
2026-05-06 16:14 35.01735 -120.20005 10540 ft 148 kts 306°
2026-05-06 16:14 35.02268 -120.21079 10464 ft 151 kts 306°
2026-05-06 16:14 35.02849 -120.22223 9736 ft 161 kts 305°
2026-05-06 16:14 35.03442 -120.23400 8981 ft 163 kts 304°
2026-05-06 16:15 35.04026 -120.24571 8234 ft 163 kts 303°
2026-05-06 16:15 35.04615 -120.25755 7483 ft 163 kts 303°
2026-05-06 16:15 35.05206 -120.26936 6729 ft 162 kts 303°
2026-05-06 16:15 35.05794 -120.28112 5989 ft 161 kts 303°
2026-05-06 16:16 35.06371 -120.29269 5277 ft 160 kts 303°
2026-05-06 16:16 35.06926 -120.30385 4880 ft 145 kts 302°
2026-05-06 16:16 35.07418 -120.31378 4699 ft 128 kts 302°
2026-05-06 16:16 35.07853 -120.32257 4614 ft 114 kts 302°
2026-05-06 16:17 35.08240 -120.33037 4568 ft 103 kts 302°
2026-05-06 16:17 35.08595 -120.33752 4551 ft 96 kts 302°
2026-05-06 16:17 35.08957 -120.34478 4554 ft 113 kts 302°
2026-05-06 16:17 35.09426 -120.35408 4561 ft 141 kts 302°
2026-05-06 16:18 35.09965 -120.36481 4550 ft 154 kts 302°
2026-05-06 16:18 35.10542 -120.37633 4539 ft 161 kts 302°
2026-05-06 16:18 35.11118 -120.38793 4533 ft 158 kts 302°
2026-05-06 16:18 35.11679 -120.39923 4528 ft 157 kts 302°
2026-05-06 16:19 35.12245 -120.41061 4525 ft 156 kts 302°
2026-05-06 16:19 35.12805 -120.42188 4522 ft 156 kts 302°
2026-05-06 16:19 35.13369 -120.43325 4527 ft 156 kts 302°
2026-05-06 16:19 35.13934 -120.44456 4528 ft 155 kts 302°
2026-05-06 16:20 35.14497 -120.45590 4528 ft 156 kts 302°
2026-05-06 16:20 35.15059 -120.46721 4519 ft 155 kts 302°
2026-05-06 16:20 35.15609 -120.47832 4527 ft 155 kts 302°
2026-05-06 16:20 35.16171 -120.48965 4526 ft 155 kts 302°
2026-05-06 16:21 35.16732 -120.50094 4526 ft 155 kts 302°
2026-05-06 16:21 35.17291 -120.51223 4524 ft 155 kts 302°
2026-05-06 16:21 35.17847 -120.52341 4524 ft 155 kts 302°
2026-05-06 16:21 35.18406 -120.53469 4525 ft 156 kts 302°
2026-05-06 16:22 35.18960 -120.54606 4525 ft 155 kts 300°
2026-05-06 16:22 35.19343 -120.55550 3767 ft 97 kts 281°
2026-05-06 16:22 35.19482 -120.56275 2724 ft 73 kts 264°
2026-05-06 16:22 35.19778 -120.57226 1515 ft 135 kts 300°
2026-05-06 16:23 35.20271 -120.58195 1003 ft 130 kts 309°
2026-05-06 16:23 35.20831 -120.59049 895 ft 127 kts 307°
2026-05-06 16:23 35.21357 -120.59913 780 ft 124 kts 304°
2026-05-06 16:23 35.21781 -120.60695 655 ft 98 kts 307°
2026-05-06 16:24 35.22173 -120.61301 463 ft 90 kts 310°
2026-05-06 16:24 35.22484 -120.61917 393 ft 81 kts 298°
2026-05-06 16:24 35.22772 -120.62468 364 ft 73 kts 307°
2026-05-06 16:24 35.23084 -120.62985 283 ft 74 kts 307°
2026-05-06 16:25 35.23362 -120.63458 199 ft 58 kts 305°
2026-05-06 16:25 35.23492 -120.63672 179 ft 17 kts 308°
2026-05-06 16:25 35.23504 -120.63669 179 ft 3 kts 281°
2026-05-06 16:25 35.23536 -120.63621 179 ft 18 kts 58°
2026-05-06 16:26 35.23644 -120.63645 179 ft 25 kts
2026-05-06 16:26 35.23697 -120.63621 179 ft 0 kts 210°
2026-05-06 16:26 35.23696 -120.63621 179 ft 0 kts 206°